createdAt,value
2019-03-29T00:00:11.846Z,10.93
2019-03-29T00:02:40.653Z,10.90
2019-03-29T00:05:09.410Z,10.78
2019-03-29T00:07:39.807Z,11.08
2019-03-29T00:10:08.662Z,12.00
2019-03-29T00:12:37.502Z,12.05
2019-03-29T00:15:08.073Z,12.30
2019-03-29T00:17:37.326Z,12.25
2019-03-29T00:20:07.467Z,12.15
2019-03-29T00:22:36.340Z,12.05
2019-03-29T00:25:05.276Z,12.30
2019-03-29T00:27:34.042Z,12.93
2019-03-29T00:30:02.856Z,12.45
2019-03-29T00:32:31.927Z,12.73
2019-03-29T00:35:00.752Z,13.38
2019-03-29T00:37:29.520Z,12.07
2019-03-29T00:39:58.256Z,12.88
2019-03-29T00:42:27.032Z,13.15
2019-03-29T00:44:55.760Z,13.00
2019-03-29T00:47:24.533Z,13.20
2019-03-29T00:49:53.390Z,13.28
2019-03-29T00:52:22.226Z,14.30
2019-03-29T00:54:50.965Z,13.45
2019-03-29T00:57:19.727Z,13.65
2019-03-29T00:59:48.457Z,13.93
2019-03-29T01:02:17.248Z,14.47
2019-03-29T01:04:46.029Z,14.47
2019-03-29T01:07:14.794Z,15.20
2019-03-29T01:09:43.585Z,15.32
2019-03-29T01:12:12.349Z,14.60
2019-03-29T01:14:41.153Z,15.13
2019-03-29T01:17:09.988Z,15.47
2019-03-29T01:19:38.833Z,15.78
2019-03-29T01:22:07.657Z,15.30
2019-03-29T01:24:36.401Z,15.63
2019-03-29T01:27:05.234Z,16.70
2019-03-29T01:29:33.969Z,15.75
2019-03-29T01:32:02.942Z,15.63
2019-03-29T01:34:31.673Z,16.93
2019-03-29T01:37:00.449Z,15.75
2019-03-29T01:39:29.189Z,16.52
2019-03-29T01:41:57.921Z,16.17
2019-03-29T01:44:27.878Z,16.37
2019-03-29T01:46:56.825Z,17.23
2019-03-29T01:49:25.649Z,17.73
2019-03-29T01:51:54.387Z,17.33
2019-03-29T01:54:23.158Z,17.92
2019-03-29T01:56:51.893Z,18.77
2019-03-29T01:59:20.677Z,17.80
2019-03-29T02:01:49.409Z,18.27
2019-03-29T02:04:18.286Z,18.95
2019-03-29T02:06:47.169Z,18.17
2019-03-29T02:09:15.936Z,16.67
2019-03-29T02:11:44.672Z,15.80
2019-03-29T02:14:13.437Z,16.80
2019-03-29T02:16:42.241Z,17.98
2019-03-29T02:19:11.041Z,19.52
2019-03-29T02:21:39.841Z,19.98
2019-03-29T02:24:08.581Z,19.62
2019-03-29T02:26:37.353Z,19.80
2019-03-29T02:29:06.121Z,18.33
2019-03-29T02:31:34.882Z,20.05
2019-03-29T02:34:03.637Z,19.73
2019-03-29T02:36:32.433Z,19.70
2019-03-29T02:39:02.506Z,19.45
2019-03-29T02:41:31.345Z,19.70
2019-03-29T02:44:00.150Z,18.93
2019-03-29T02:46:28.926Z,21.65
2019-03-29T02:48:57.647Z,21.80
2019-03-29T02:51:26.468Z,20.75
2019-03-29T02:53:55.237Z,21.33
2019-03-29T02:56:24.006Z,20.50
2019-03-29T02:58:52.838Z,21.77
2019-03-29T03:01:21.605Z,20.68
2019-03-29T03:03:50.372Z,22.22
2019-03-29T03:06:19.113Z,20.57
2019-03-29T03:08:47.892Z,21.80
2019-03-29T03:11:16.643Z,22.15
2019-03-29T03:13:45.461Z,22.10
2019-03-29T03:16:14.197Z,23.05
2019-03-29T03:18:42.969Z,22.43
2019-03-29T03:21:11.785Z,24.45
2019-03-29T03:23:40.610Z,21.70
2019-03-29T03:26:09.342Z,21.03
2019-03-29T03:28:38.113Z,21.50
2019-03-29T03:31:06.942Z,22.15
2019-03-29T03:33:35.706Z,23.35
2019-03-29T03:36:04.519Z,23.32
2019-03-29T03:38:33.281Z,21.00
2019-03-29T03:41:02.026Z,21.40
2019-03-29T03:43:30.786Z,22.00
2019-03-29T03:45:59.590Z,23.27
2019-03-29T03:48:28.354Z,24.52
2019-03-29T03:50:57.449Z,23.13
2019-03-29T03:53:26.481Z,23.35
2019-03-29T03:55:55.428Z,24.95
2019-03-29T03:58:25.306Z,24.65
2019-03-29T04:00:57.832Z,24.47
2019-03-29T04:03:26.974Z,24.93
2019-03-29T04:05:56.057Z,25.12
2019-03-29T04:08:25.294Z,26.00
2019-03-29T04:10:54.066Z,25.33
2019-03-29T04:13:22.894Z,25.72
2019-03-29T04:15:51.653Z,25.65
2019-03-29T04:18:20.386Z,24.83
2019-03-29T04:20:49.170Z,24.72
2019-03-29T04:23:17.894Z,24.87
2019-03-29T04:25:46.681Z,23.87
2019-03-29T04:28:15.397Z,26.17
2019-03-29T04:30:44.230Z,24.98
2019-03-29T04:33:12.966Z,28.02
2019-03-29T04:35:41.736Z,25.67
2019-03-29T04:38:10.565Z,28.17
2019-03-29T04:40:39.387Z,25.70
2019-03-29T04:43:08.121Z,25.33
2019-03-29T04:45:36.922Z,25.68
2019-03-29T04:48:05.654Z,26.68
2019-03-29T04:50:34.423Z,26.23
2019-03-29T04:53:03.196Z,26.52
2019-03-29T04:55:32.010Z,26.50
2019-03-29T04:58:00.741Z,25.30
2019-03-29T05:00:29.520Z,25.35
2019-03-29T05:02:58.283Z,23.52
2019-03-29T05:05:27.162Z,24.30
2019-03-29T05:07:55.910Z,23.38
2019-03-29T05:10:24.678Z,23.62
2019-03-29T05:12:53.509Z,25.57
2019-03-29T05:15:22.286Z,26.23
2019-03-29T05:17:51.026Z,25.97
2019-03-29T05:20:19.861Z,26.55
2019-03-29T05:22:48.654Z,23.30
2019-03-29T05:25:17.467Z,24.72
2019-03-29T05:27:47.330Z,24.77
2019-03-29T05:30:16.165Z,25.45
2019-03-29T05:32:44.917Z,26.42
2019-03-29T05:35:13.688Z,27.67
2019-03-29T05:37:42.521Z,26.77
2019-03-29T05:40:12.917Z,27.67
2019-03-29T05:42:41.757Z,27.62
2019-03-29T05:45:12.605Z,28.40
2019-03-29T05:47:41.724Z,25.68
2019-03-29T05:50:10.674Z,25.12
2019-03-29T05:52:39.521Z,26.27
2019-03-29T05:55:08.457Z,26.37
2019-03-29T05:57:37.221Z,25.30
2019-03-29T06:00:11.010Z,26.87
2019-03-29T06:02:40.573Z,27.90
2019-03-29T06:05:10.233Z,27.00
2019-03-29T06:07:41.869Z,26.63
2019-03-29T06:10:15.203Z,26.30
2019-03-29T06:12:43.870Z,26.93
2019-03-29T06:18:03.505Z,25.97
2019-03-29T06:20:32.241Z,26.48
2019-03-29T06:23:01.095Z,25.25
2019-03-29T06:25:31.528Z,24.47
2019-03-29T06:28:00.452Z,24.10
2019-03-29T06:30:29.847Z,24.70
2019-03-29T06:32:59.779Z,25.12
2019-03-29T06:35:31.541Z,25.30
2019-03-29T06:38:01.005Z,25.77
2019-03-29T06:40:30.086Z,23.95
2019-03-29T06:42:59.066Z,25.85
2019-03-29T06:45:27.863Z,26.35
2019-03-29T06:47:56.709Z,25.80
2019-03-29T06:50:25.499Z,25.75
2019-03-29T06:52:54.270Z,26.00
2019-03-29T06:55:23.004Z,25.43
2019-03-29T06:57:51.869Z,24.95
2019-03-29T07:00:20.600Z,26.48
2019-03-29T07:02:49.377Z,23.87
2019-03-29T07:05:18.121Z,25.27
2019-03-29T07:07:49.204Z,25.15
2019-03-29T07:10:18.026Z,24.43
2019-03-29T07:12:46.860Z,23.80
2019-03-29T07:15:15.673Z,23.92
2019-03-29T07:17:44.456Z,23.15
2019-03-29T07:20:13.193Z,23.23
2019-03-29T07:22:41.990Z,22.27
2019-03-29T07:25:10.825Z,23.45
2019-03-29T07:27:45.770Z,23.30
2019-03-29T07:30:10.580Z,24.35
2019-03-29T07:32:39.386Z,23.73
2019-03-29T07:35:08.257Z,23.50
2019-03-29T07:37:37.081Z,23.50
2019-03-29T07:40:06.344Z,23.75
2019-03-29T07:42:35.090Z,22.93
2019-03-29T07:45:06.039Z,25.83
2019-03-29T07:47:34.893Z,24.75
2019-03-29T07:50:04.706Z,24.02
2019-03-29T07:52:33.529Z,23.98
2019-03-29T07:55:04.285Z,24.03
2019-03-29T07:57:33.338Z,24.00
2019-03-29T08:00:02.185Z,23.35
2019-03-29T08:02:30.983Z,23.38
2019-03-29T08:04:59.769Z,24.47
2019-03-29T08:07:31.489Z,22.80
2019-03-29T08:10:04.056Z,22.05
2019-03-29T08:12:53.808Z,22.90
2019-03-29T08:15:22.731Z,23.07
2019-03-29T08:17:51.417Z,22.50
2019-03-29T08:20:40.512Z,22.30
2019-03-29T08:22:52.159Z,22.75
2019-03-29T08:25:20.929Z,21.15
2019-03-29T08:27:49.680Z,21.43
2019-03-29T08:30:22.345Z,22.42
2019-03-29T08:32:51.077Z,21.87
2019-03-29T08:35:19.834Z,22.27
2019-03-29T08:37:48.583Z,21.85
2019-03-29T08:40:17.389Z,22.07
2019-03-29T08:42:58.305Z,21.90
2019-03-29T08:45:37.091Z,21.12
2019-03-29T08:48:12.757Z,22.00
2019-03-29T08:50:53.791Z,20.55
2019-03-29T08:53:23.130Z,20.72
2019-03-29T08:55:56.874Z,19.45
2019-03-29T08:58:26.457Z,19.00
2019-03-29T09:00:57.492Z,19.98
2019-03-29T09:03:26.163Z,18.30
2019-03-29T09:05:55.208Z,16.67
2019-03-29T09:08:26.729Z,17.95
2019-03-29T09:10:55.517Z,17.73
2019-03-29T09:13:24.254Z,17.92
2019-03-29T09:15:53.115Z,16.85
2019-03-29T09:18:21.933Z,16.70
2019-03-29T09:20:51.219Z,15.95
2019-03-29T09:23:20.309Z,17.17
2019-03-29T09:25:49.042Z,16.60
2019-03-29T09:28:17.851Z,16.20
2019-03-29T09:30:46.720Z,15.78
2019-03-29T09:33:15.520Z,16.97
2019-03-29T09:35:44.437Z,16.10
2019-03-29T09:38:13.221Z,17.62
2019-03-29T09:40:42.025Z,16.37
2019-03-29T09:43:10.907Z,15.55
2019-03-29T09:45:41.230Z,15.40
2019-03-29T09:48:10.127Z,15.10
2019-03-29T09:50:38.919Z,14.63
2019-03-29T09:53:07.659Z,15.30
2019-03-29T09:55:36.390Z,14.38
2019-03-29T09:58:05.239Z,14.07
2019-03-29T10:00:33.973Z,14.95
2019-03-29T10:03:02.749Z,14.18
2019-03-29T10:05:31.760Z,13.07
2019-03-29T10:08:00.672Z,12.18
2019-03-29T10:10:29.389Z,12.33
2019-03-29T10:12:58.166Z,12.50
2019-03-29T10:15:26.966Z,12.85
2019-03-29T10:17:55.753Z,13.22
2019-03-29T10:20:26.094Z,11.78
2019-03-29T10:22:54.961Z,13.85
2019-03-29T10:25:23.996Z,13.35
2019-03-29T10:27:52.893Z,13.30
2019-03-29T10:30:37.648Z,12.97
2019-03-29T10:33:06.946Z,12.63
2019-03-29T10:35:50.267Z,12.23
2019-03-29T10:38:07.052Z,11.73
2019-03-29T10:40:37.658Z,12.30
2019-03-29T10:43:06.933Z,12.13
2019-03-29T10:45:40.057Z,11.60
2019-03-29T10:48:06.708Z,12.30
2019-03-29T10:50:36.233Z,12.60
2019-03-29T10:53:05.033Z,11.03
2019-03-29T10:55:33.989Z,10.63
2019-03-29T10:58:02.740Z,11.08
2019-03-29T11:00:41.295Z,11.10
2019-03-29T11:03:10.390Z,12.58
2019-03-29T11:05:39.266Z,10.43
2019-03-29T11:08:11.427Z,9.90
2019-03-29T11:10:39.621Z,9.30
2019-03-29T11:13:13.205Z,9.13
2019-03-29T11:15:38.933Z,9.95
2019-03-29T11:18:08.232Z,10.40
2019-03-29T11:20:36.965Z,9.45
2019-03-29T11:23:05.828Z,10.35
2019-03-29T11:25:34.644Z,11.87
2019-03-29T11:28:03.605Z,10.77
2019-03-29T11:30:41.924Z,10.68
2019-03-29T11:33:03.149Z,10.13
2019-03-29T11:35:32.098Z,10.18
2019-03-29T11:38:01.060Z,9.75
2019-03-29T11:40:31.313Z,10.60
2019-03-29T11:43:00.180Z,10.40
2019-03-29T11:45:29.288Z,10.20
2019-03-29T11:48:08.334Z,9.85
2019-03-29T11:50:40.015Z,10.00
2019-03-29T11:53:09.822Z,10.25
2019-03-29T11:55:38.658Z,10.80
2019-03-29T11:58:07.501Z,11.90
2019-03-29T12:00:38.721Z,12.88
2019-03-29T12:03:09.389Z,12.40
2019-03-29T12:05:38.291Z,12.53
2019-03-29T12:08:07.233Z,11.90
2019-03-29T12:10:36.089Z,11.95
2019-03-29T12:13:05.336Z,11.70
2019-03-29T12:15:34.281Z,11.88
2019-03-29T12:18:03.118Z,11.73
2019-03-29T12:20:31.935Z,12.45
2019-03-29T12:23:00.712Z,12.73
2019-03-29T12:25:29.621Z,12.78
2019-03-29T12:27:58.402Z,13.10
2019-03-29T12:30:31.718Z,13.70
2019-03-29T12:32:57.633Z,12.53
2019-03-29T12:35:26.377Z,12.73
2019-03-29T12:37:55.213Z,12.47
2019-03-29T12:40:24.024Z,12.98
2019-03-29T12:42:52.863Z,12.25
2019-03-29T12:45:21.658Z,12.40
2019-03-29T12:47:50.403Z,12.05
2019-03-29T12:50:19.172Z,12.63
2019-03-29T12:52:47.976Z,12.63
2019-03-29T12:55:16.748Z,13.22
2019-03-29T12:57:45.522Z,13.05
2019-03-29T13:00:15.285Z,13.10
2019-03-29T13:02:44.187Z,13.13
2019-03-29T13:05:12.923Z,13.83
2019-03-29T13:07:41.666Z,13.70
2019-03-29T13:10:11.001Z,13.98
2019-03-29T13:12:39.868Z,13.30
2019-03-29T13:15:09.672Z,13.20
2019-03-29T13:17:38.967Z,12.40
2019-03-29T13:20:28.952Z,12.73
2019-03-29T13:22:59.897Z,13.20
2019-03-29T13:25:28.741Z,13.00
2019-03-29T13:27:59.385Z,13.25
2019-03-29T13:30:29.274Z,13.43
2019-03-29T13:32:58.177Z,13.22
2019-03-29T13:35:27.117Z,12.75
2019-03-29T13:37:55.861Z,13.32
2019-03-29T13:40:24.742Z,12.78
2019-03-29T13:42:53.668Z,11.83
2019-03-29T13:45:22.459Z,12.15
2019-03-29T13:47:51.329Z,13.50
2019-03-29T13:50:20.088Z,13.17
2019-03-29T13:52:48.838Z,14.63
2019-03-29T13:55:18.030Z,13.07
2019-03-29T13:57:46.945Z,12.55
2019-03-29T14:00:16.897Z,12.70
2019-03-29T14:02:45.778Z,13.45
2019-03-29T14:05:16.556Z,14.53
2019-03-29T14:07:45.231Z,13.10
2019-03-29T14:10:14.053Z,13.22
2019-03-29T14:12:42.878Z,12.95
2019-03-29T14:15:13.216Z,13.15
2019-03-29T14:17:42.064Z,12.93
2019-03-29T14:20:12.201Z,15.68
2019-03-29T14:22:40.989Z,13.83
2019-03-29T14:25:10.136Z,13.15
2019-03-29T14:27:38.912Z,13.48
2019-03-29T14:30:08.144Z,14.28
2019-03-29T14:32:36.932Z,13.53
2019-03-29T14:35:08.417Z,13.53
2019-03-29T14:37:37.158Z,13.78
2019-03-29T14:40:07.394Z,13.98
2019-03-29T14:42:36.229Z,13.55
2019-03-29T14:45:07.510Z,14.00
2019-03-29T14:47:43.217Z,13.95
2019-03-29T14:50:08.225Z,12.93
2019-03-29T14:52:37.137Z,14.25
2019-03-29T14:55:06.805Z,13.88
2019-03-29T14:57:35.573Z,15.13
2019-03-29T15:00:06.623Z,13.93
2019-03-29T15:02:35.357Z,15.18
2019-03-29T15:05:06.297Z,14.35
2019-03-29T15:07:35.239Z,13.95
2019-03-29T15:10:06.410Z,14.63
2019-03-29T15:12:35.140Z,14.63
2019-03-29T15:15:06.884Z,14.28
2019-03-29T15:17:35.972Z,14.98
2019-03-29T15:20:06.047Z,15.13
2019-03-29T15:22:34.782Z,15.15
2019-03-29T15:25:04.053Z,15.43
2019-03-29T15:27:32.893Z,16.07
2019-03-29T15:30:02.845Z,16.20
2019-03-29T15:32:31.870Z,16.42
2019-03-29T15:35:00.621Z,15.08
2019-03-29T15:37:31.308Z,16.50
2019-03-29T15:39:59.838Z,15.75
2019-03-29T15:42:28.701Z,16.35
2019-03-29T15:44:57.466Z,16.30
2019-03-29T15:47:26.305Z,16.17
2019-03-29T15:49:56.629Z,16.25
2019-03-29T15:52:25.413Z,15.80
2019-03-29T15:54:54.257Z,16.13
2019-03-29T15:57:22.997Z,16.40
2019-03-29T15:59:51.813Z,16.48
2019-03-29T16:02:20.641Z,16.82
2019-03-29T16:04:49.604Z,15.80
2019-03-29T16:07:18.392Z,17.10
2019-03-29T16:09:47.230Z,16.17
2019-03-29T16:12:15.965Z,16.00
2019-03-29T16:14:44.868Z,16.25
2019-03-29T16:17:13.708Z,15.83
2019-03-29T16:19:44.869Z,16.23
2019-03-29T16:22:13.614Z,15.90
2019-03-29T16:24:42.447Z,16.20
2019-03-29T16:27:11.276Z,16.10
2019-03-29T16:29:40.113Z,17.07
2019-03-29T16:32:08.962Z,16.93
2019-03-29T16:34:37.749Z,17.20
2019-03-29T16:37:06.606Z,17.57
2019-03-29T16:39:35.513Z,16.97
2019-03-29T16:42:04.386Z,19.42
2019-03-29T16:44:33.125Z,17.40
2019-03-29T16:47:01.911Z,16.00
2019-03-29T16:49:30.661Z,16.20
2019-03-29T16:51:59.453Z,16.82
2019-03-29T16:54:28.247Z,15.65
2019-03-29T16:56:57.086Z,16.75
2019-03-29T16:59:25.897Z,16.82
2019-03-29T17:01:54.674Z,16.87
2019-03-29T17:04:23.682Z,16.30
2019-03-29T17:06:52.465Z,16.37
2019-03-29T17:09:21.309Z,15.50
2019-03-29T17:11:50.082Z,16.15
2019-03-29T17:14:18.932Z,16.75
2019-03-29T17:16:52.825Z,16.42
2019-03-29T17:19:20.362Z,16.52
2019-03-29T17:21:49.666Z,15.75
2019-03-29T17:24:18.406Z,15.50
2019-03-29T17:26:47.780Z,15.60
2019-03-29T17:29:16.578Z,16.05
2019-03-29T17:31:45.428Z,16.10
2019-03-29T17:34:14.169Z,15.98
2019-03-29T17:36:42.937Z,17.03
2019-03-29T17:39:11.678Z,16.80
2019-03-29T17:41:40.478Z,15.90
2019-03-29T17:44:09.226Z,18.07
2019-03-29T17:46:38.075Z,17.52
2019-03-29T17:49:06.812Z,17.02
2019-03-29T17:51:35.581Z,16.93
2019-03-29T17:54:04.634Z,16.77
2019-03-29T17:56:33.473Z,17.73
2019-03-29T17:59:02.256Z,17.70
2019-03-29T18:01:31.097Z,17.57
2019-03-29T18:04:07.878Z,17.87
2019-03-29T18:06:36.725Z,18.32
2019-03-29T18:09:07.633Z,17.15
2019-03-29T18:11:36.677Z,17.92
2019-03-29T18:14:05.451Z,18.20
2019-03-29T18:16:34.201Z,18.30
2019-03-29T18:19:02.981Z,17.87
2019-03-29T18:21:31.799Z,18.85
2019-03-29T18:24:00.632Z,19.23
2019-03-29T18:26:29.448Z,17.52
2019-03-29T18:28:58.298Z,18.62
2019-03-29T18:31:27.088Z,18.60
2019-03-29T18:33:55.966Z,19.02
2019-03-29T18:36:24.743Z,18.67
2019-03-29T18:38:53.908Z,18.95
2019-03-29T18:41:22.644Z,19.10
2019-03-29T18:43:51.421Z,18.75
2019-03-29T18:46:20.236Z,17.92
2019-03-29T18:48:49.083Z,18.48
2019-03-29T18:51:17.861Z,18.55
2019-03-29T18:53:46.700Z,19.50
2019-03-29T18:56:15.509Z,18.50
2019-03-29T18:58:44.288Z,18.53
2019-03-29T19:01:13.027Z,18.50
2019-03-29T19:03:41.828Z,19.60
2019-03-29T19:06:10.588Z,19.40
2019-03-29T19:08:39.381Z,19.67
2019-03-29T19:11:08.193Z,19.40
2019-03-29T19:13:36.973Z,20.32
2019-03-29T19:16:05.703Z,19.48
2019-03-29T19:18:34.473Z,18.50
2019-03-29T19:21:03.300Z,19.10
2019-03-29T19:23:32.188Z,18.10
2019-03-29T19:26:01.123Z,19.62
2019-03-29T19:28:31.539Z,17.65
2019-03-29T19:31:00.381Z,17.35
2019-03-29T19:33:34.546Z,18.85
2019-03-29T19:36:03.409Z,19.70
2019-03-29T19:38:32.187Z,20.02
2019-03-29T19:41:00.926Z,19.40
2019-03-29T19:43:29.873Z,17.37
2019-03-29T19:45:58.713Z,19.17
2019-03-29T19:48:27.449Z,18.62
2019-03-29T19:50:56.293Z,19.07
2019-03-29T19:53:29.110Z,19.60
2019-03-29T19:55:57.954Z,19.15
2019-03-29T19:58:26.819Z,19.95
2019-03-29T20:00:55.747Z,19.05
2019-03-29T20:03:24.543Z,18.80
2019-03-29T20:05:53.305Z,19.60
2019-03-29T20:08:22.045Z,21.07
2019-03-29T20:10:51.021Z,21.17
2019-03-29T20:13:19.841Z,20.77
2019-03-29T20:15:52.800Z,21.07
2019-03-29T20:18:22.124Z,20.40
2019-03-29T20:20:50.948Z,20.15
2019-03-29T20:23:19.814Z,18.92
2019-03-29T20:25:48.586Z,21.00
2019-03-29T20:28:17.377Z,20.95
2019-03-29T20:30:46.149Z,20.60
2019-03-29T20:33:14.953Z,19.40
2019-03-29T20:35:43.782Z,19.90
2019-03-29T20:38:16.551Z,21.10
2019-03-29T20:40:45.595Z,19.43
2019-03-29T20:43:14.328Z,19.95
2019-03-29T20:45:43.073Z,20.60
2019-03-29T20:48:11.846Z,19.23
2019-03-29T20:50:45.162Z,20.65
2019-03-29T20:53:13.981Z,21.45
2019-03-29T20:55:42.784Z,21.68
2019-03-29T20:58:11.545Z,21.57
2019-03-29T21:00:40.281Z,20.80
2019-03-29T21:03:11.005Z,22.22
2019-03-29T21:05:39.762Z,22.42
2019-03-29T21:08:09.902Z,21.93
2019-03-29T21:10:38.749Z,19.30
2019-03-29T21:13:10.580Z,19.57
2019-03-29T21:15:39.360Z,21.77
2019-03-29T21:18:08.234Z,19.98
2019-03-29T21:20:36.969Z,20.37
2019-03-29T21:23:05.798Z,20.97
2019-03-29T21:25:34.609Z,22.93
2019-03-29T21:28:03.553Z,24.43
2019-03-29T21:30:32.367Z,22.75
2019-03-29T21:33:01.222Z,24.45
2019-03-29T21:35:29.984Z,23.00
2019-03-29T21:37:58.735Z,22.20
2019-03-29T21:40:28.966Z,21.97
2019-03-29T21:42:57.778Z,22.60
2019-03-29T21:45:28.920Z,21.45
2019-03-29T21:48:25.139Z,22.25
2019-03-29T21:50:38.857Z,21.12
2019-03-29T21:53:07.706Z,22.22
2019-03-29T21:55:44.853Z,22.55
2019-03-29T21:58:14.971Z,24.12
2019-03-29T22:00:43.734Z,22.87
2019-03-29T22:03:12.577Z,23.45
2019-03-29T22:05:41.407Z,23.40
2019-03-29T22:08:10.165Z,22.75
2019-03-29T22:10:38.944Z,22.77
2019-03-29T22:13:07.706Z,22.10
2019-03-29T22:15:36.530Z,22.75
2019-03-29T22:18:06.856Z,24.52
2019-03-29T22:20:35.834Z,25.97
2019-03-29T22:23:11.049Z,25.00
2019-03-29T22:25:39.856Z,24.12
2019-03-29T22:28:08.621Z,25.45
2019-03-29T22:30:37.361Z,24.45
2019-03-29T22:33:06.129Z,25.23
2019-03-29T22:35:34.945Z,26.15
2019-03-29T22:38:03.733Z,25.10
2019-03-29T22:40:32.590Z,26.42
2019-03-29T22:43:01.362Z,26.12
2019-03-29T22:45:30.166Z,27.27
2019-03-29T22:47:59.012Z,28.23
2019-03-29T22:50:27.753Z,27.02
2019-03-29T22:52:56.526Z,24.40
2019-03-29T22:55:25.285Z,27.75
2019-03-29T22:57:54.037Z,27.62
2019-03-29T23:00:38.851Z,28.47
2019-03-29T23:03:08.149Z,30.68
2019-03-29T23:05:37.216Z,27.02
2019-03-29T23:08:06.329Z,26.60
2019-03-29T23:10:35.161Z,28.15
2019-03-29T23:13:04.089Z,28.70
2019-03-29T23:15:32.844Z,27.65
2019-03-29T23:18:01.614Z,30.52
2019-03-29T23:20:30.435Z,30.90
2019-03-29T23:22:59.169Z,28.60
2019-03-29T23:25:27.942Z,30.50
2019-03-29T23:27:56.679Z,33.77
2019-03-29T23:30:25.482Z,38.40
2019-03-29T23:32:54.250Z,40.43
2019-03-29T23:35:23.016Z,57.75
2019-03-29T23:37:51.854Z,42.83
2019-03-29T23:40:20.582Z,45.73
2019-03-29T23:42:49.417Z,46.42
2019-03-29T23:45:18.236Z,49.77
2019-03-29T23:47:58.205Z,43.68
2019-03-29T23:50:26.653Z,41.80
2019-03-29T23:52:55.531Z,44.70
2019-03-29T23:55:24.269Z,43.83
2019-03-29T23:57:53.118Z,43.90
